sensor_id;sensor_type;location;lat;lon;timestamp;temperature;humidity
75705;DHT22;70013;44.726;37.760;2023-07-31T00:00:44;24.76;53.78
75705;DHT22;70013;44.726;37.760;2023-07-31T00:01:47;24.73;53.67
75705;DHT22;70013;44.726;37.760;2023-07-31T00:02:48;24.71;53.56
75705;DHT22;70013;44.726;37.760;2023-07-31T00:03:49;24.72;53.57
75705;DHT22;70013;44.726;37.760;2023-07-31T00:04:51;24.73;53.41
75705;DHT22;70013;44.726;37.760;2023-07-31T00:05:52;24.71;53.90
75705;DHT22;70013;44.726;37.760;2023-07-31T00:06:53;24.72;53.47
75705;DHT22;70013;44.726;37.760;2023-07-31T00:07:55;24.72;54.04
75705;DHT22;70013;44.726;37.760;2023-07-31T00:08:56;24.72;53.81
75705;DHT22;70013;44.726;37.760;2023-07-31T00:09:57;24.71;53.44
75705;DHT22;70013;44.726;37.760;2023-07-31T00:10:59;24.68;53.23
75705;DHT22;70013;44.726;37.760;2023-07-31T00:12:00;24.69;53.32
75705;DHT22;70013;44.726;37.760;2023-07-31T00:13:01;24.70;53.56
75705;DHT22;70013;44.726;37.760;2023-07-31T00:14:02;24.66;53.46
75705;DHT22;70013;44.726;37.760;2023-07-31T00:15:05;24.69;53.96
75705;DHT22;70013;44.726;37.760;2023-07-31T00:16:07;24.70;53.81
75705;DHT22;70013;44.726;37.760;2023-07-31T00:17:08;24.69;53.92
75705;DHT22;70013;44.726;37.760;2023-07-31T00:18:10;24.69;54.18
75705;DHT22;70013;44.726;37.760;2023-07-31T00:19:11;24.68;54.01
75705;DHT22;70013;44.726;37.760;2023-07-31T00:20:12;24.68;53.90
75705;DHT22;70013;44.726;37.760;2023-07-31T00:21:13;24.63;53.81
75705;DHT22;70013;44.726;37.760;2023-07-31T00:22:15;24.64;53.68
75705;DHT22;70013;44.726;37.760;2023-07-31T00:23:16;24.64;54.03
75705;DHT22;70013;44.726;37.760;2023-07-31T00:24:17;24.66;53.55
75705;DHT22;70013;44.726;37.760;2023-07-31T00:25:19;24.64;53.78
75705;DHT22;70013;44.726;37.760;2023-07-31T00:26:20;24.68;54.36
75705;DHT22;70013;44.726;37.760;2023-07-31T00:27:21;24.66;54.48
75705;DHT22;70013;44.726;37.760;2023-07-31T00:28:22;24.65;55.31
75705;DHT22;70013;44.726;37.760;2023-07-31T00:29:24;24.64;54.60
75705;DHT22;70013;44.726;37.760;2023-07-31T00:30:25;24.65;55.18
75705;DHT22;70013;44.726;37.760;2023-07-31T00:31:28;24.63;54.94
75705;DHT22;70013;44.726;37.760;2023-07-31T00:32:30;24.60;54.97
75705;DHT22;70013;44.726;37.760;2023-07-31T00:33:31;24.60;55.06
75705;DHT22;70013;44.726;37.760;2023-07-31T00:34:33;24.58;55.82
75705;DHT22;70013;44.726;37.760;2023-07-31T00:35:34;24.56;56.32
75705;DHT22;70013;44.726;37.760;2023-07-31T00:36:35;24.54;56.27
75705;DHT22;70013;44.726;37.760;2023-07-31T00:37:37;24.54;56.42
75705;DHT22;70013;44.726;37.760;2023-07-31T00:38:38;24.56;56.34
75705;DHT22;70013;44.726;37.760;2023-07-31T00:39:41;24.56;56.13
75705;DHT22;70013;44.726;37.760;2023-07-31T00:40:42;24.58;55.87
75705;DHT22;70013;44.726;37.760;2023-07-31T00:41:43;24.54;56.54
75705;DHT22;70013;44.726;37.760;2023-07-31T00:42:45;24.53;56.18
75705;DHT22;70013;44.726;37.760;2023-07-31T00:43:46;24.54;56.69
75705;DHT22;70013;44.726;37.760;2023-07-31T00:44:47;24.50;56.40
75705;DHT22;70013;44.726;37.760;2023-07-31T00:45:50;24.54;56.10
75705;DHT22;70013;44.726;37.760;2023-07-31T00:46:52;24.48;56.62
75705;DHT22;70013;44.726;37.760;2023-07-31T00:47:54;24.50;56.70
75705;DHT22;70013;44.726;37.760;2023-07-31T00:48:56;24.49;56.63
75705;DHT22;70013;44.726;37.760;2023-07-31T00:49:59;24.50;56.69
75705;DHT22;70013;44.726;37.760;2023-07-31T00:51:00;24.50;56.00
75705;DHT22;70013;44.726;37.760;2023-07-31T00:52:02;24.47;57.00
75705;DHT22;70013;44.726;37.760;2023-07-31T00:53:04;24.47;56.31
75705;DHT22;70013;44.726;37.760;2023-07-31T00:54:06;24.46;56.95
75705;DHT22;70013;44.726;37.760;2023-07-31T00:55:08;24.48;56.62
75705;DHT22;70013;44.726;37.760;2023-07-31T00:56:10;24.47;56.70
75705;DHT22;70013;44.726;37.760;2023-07-31T00:57:14;24.47;56.36
75705;DHT22;70013;44.726;37.760;2023-07-31T00:58:15;24.49;55.68
75705;DHT22;70013;44.726;37.760;2023-07-31T00:59:16;24.49;55.72
75705;DHT22;70013;44.726;37.760;2023-07-31T01:00:20;24.44;55.94
75705;DHT22;70013;44.726;37.760;2023-07-31T01:01:21;24.44;55.49
75705;DHT22;70013;44.726;37.760;2023-07-31T01:02:23;24.44;55.81
75705;DHT22;70013;44.726;37.760;2023-07-31T01:03:24;24.44;56.84
75705;DHT22;70013;44.726;37.760;2023-07-31T01:04:26;24.44;56.90
75705;DHT22;70013;44.726;37.760;2023-07-31T01:07:20;24.43;56.18
75705;DHT22;70013;44.726;37.760;2023-07-31T01:08:48;24.39;58.57
75705;DHT22;70013;44.726;37.760;2023-07-31T01:10:11;24.33;59.19
75705;DHT22;70013;44.726;37.760;2023-07-31T01:11:27;24.27;59.13
75705;DHT22;70013;44.726;37.760;2023-07-31T01:12:30;24.20;59.20
75705;DHT22;70013;44.726;37.760;2023-07-31T01:13:32;24.23;58.51
75705;DHT22;70013;44.726;37.760;2023-07-31T01:14:34;24.23;59.61
75705;DHT22;70013;44.726;37.760;2023-07-31T01:15:36;24.24;58.40
75705;DHT22;70013;44.726;37.760;2023-07-31T01:16:39;24.25;58.87
75705;DHT22;70013;44.726;37.760;2023-07-31T01:17:41;24.23;58.80
75705;DHT22;70013;44.726;37.760;2023-07-31T01:18:43;24.21;58.45
75705;DHT22;70013;44.726;37.760;2023-07-31T01:19:44;24.23;57.70
75705;DHT22;70013;44.726;37.760;2023-07-31T01:20:54;24.20;57.93
75705;DHT22;70013;44.726;37.760;2023-07-31T01:22:30;24.20;58.06
75705;DHT22;70013;44.726;37.760;2023-07-31T01:25:13;24.23;57.42
75705;DHT22;70013;44.726;37.760;2023-07-31T01:26:23;24.23;57.61
75705;DHT22;70013;44.726;37.760;2023-07-31T01:27:30;24.21;57.17
75705;DHT22;70013;44.726;37.760;2023-07-31T01:28:59;24.18;58.09
75705;DHT22;70013;44.726;37.760;2023-07-31T01:30:09;24.12;58.39
75705;DHT22;70013;44.726;37.760;2023-07-31T01:31:20;24.06;58.87
75705;DHT22;70013;44.726;37.760;2023-07-31T01:32:22;24.04;59.28
75705;DHT22;70013;44.726;37.760;2023-07-31T01:33:24;24.03;59.77
75705;DHT22;70013;44.726;37.760;2023-07-31T01:34:26;24.05;59.22
75705;DHT22;70013;44.726;37.760;2023-07-31T01:35:28;24.03;59.66
75705;DHT22;70013;44.726;37.760;2023-07-31T01:36:30;24.04;58.21
75705;DHT22;70013;44.726;37.760;2023-07-31T01:37:31;24.03;58.35
75705;DHT22;70013;44.726;37.760;2023-07-31T01:38:35;24.04;59.97
75705;DHT22;70013;44.726;37.760;2023-07-31T01:39:37;24.04;59.88
75705;DHT22;70013;44.726;37.760;2023-07-31T01:40:41;24.05;59.25
75705;DHT22;70013;44.726;37.760;2023-07-31T01:41:44;24.06;59.37
75705;DHT22;70013;44.726;37.760;2023-07-31T01:42:45;24.05;60.15
75705;DHT22;70013;44.726;37.760;2023-07-31T01:43:47;24.05;59.50
75705;DHT22;70013;44.726;37.760;2023-07-31T01:44:48;24.04;59.73
75705;DHT22;70013;44.726;37.760;2023-07-31T01:45:49;24.05;59.55
75705;DHT22;70013;44.726;37.760;2023-07-31T01:46:52;24.04;59.21
75705;DHT22;70013;44.726;37.760;2023-07-31T01:47:54;24.05;58.19
75705;DHT22;70013;44.726;37.760;2023-07-31T01:48:56;24.03;58.76
75705;DHT22;70013;44.726;37.760;2023-07-31T01:49:58;24.01;58.40
75705;DHT22;70013;44.726;37.760;2023-07-31T01:51:00;23.99;58.45
75705;DHT22;70013;44.726;37.760;2023-07-31T01:52:01;23.99;58.48
75705;DHT22;70013;44.726;37.760;2023-07-31T01:53:02;23.98;59.02
75705;DHT22;70013;44.726;37.760;2023-07-31T01:54:04;23.98;58.22
75705;DHT22;70013;44.726;37.760;2023-07-31T01:55:05;23.97;58.39
75705;DHT22;70013;44.726;37.760;2023-07-31T01:56:06;23.97;58.76
75705;DHT22;70013;44.726;37.760;2023-07-31T01:57:08;23.97;58.55
75705;DHT22;70013;44.726;37.760;2023-07-31T01:58:09;23.96;58.74
75705;DHT22;70013;44.726;37.760;2023-07-31T01:59:11;23.96;58.34
75705;DHT22;70013;44.726;37.760;2023-07-31T02:00:12;23.98;58.48
75705;DHT22;70013;44.726;37.760;2023-07-31T02:01:14;24.00;59.17
75705;DHT22;70013;44.726;37.760;2023-07-31T02:02:16;23.99;58.84
75705;DHT22;70013;44.726;37.760;2023-07-31T02:03:17;24.00;58.36
75705;DHT22;70013;44.726;37.760;2023-07-31T02:04:19;24.00;58.22
75705;DHT22;70013;44.726;37.760;2023-07-31T02:05:20;24.02;58.03
75705;DHT22;70013;44.726;37.760;2023-07-31T02:06:21;23.99;58.51
75705;DHT22;70013;44.726;37.760;2023-07-31T02:07:24;24.01;58.70
75705;DHT22;70013;44.726;37.760;2023-07-31T02:08:26;24.01;59.25
75705;DHT22;70013;44.726;37.760;2023-07-31T02:09:27;24.01;58.79
75705;DHT22;70013;44.726;37.760;2023-07-31T02:10:28;23.99;59.02
75705;DHT22;70013;44.726;37.760;2023-07-31T02:11:30;24.01;57.89
75705;DHT22;70013;44.726;37.760;2023-07-31T02:12:31;24.01;58.33
75705;DHT22;70013;44.726;37.760;2023-07-31T02:13:33;24.00;57.91
75705;DHT22;70013;44.726;37.760;2023-07-31T02:14:34;24.01;58.67
75705;DHT22;70013;44.726;37.760;2023-07-31T02:15:36;24.00;58.67
75705;DHT22;70013;44.726;37.760;2023-07-31T02:16:38;24.01;58.01
75705;DHT22;70013;44.726;37.760;2023-07-31T02:17:40;24.02;57.62
75705;DHT22;70013;44.726;37.760;2023-07-31T02:18:42;24.01;57.08
75705;DHT22;70013;44.726;37.760;2023-07-31T02:19:43;24.00;57.42
75705;DHT22;70013;44.726;37.760;2023-07-31T02:20:48;24.00;57.09
75705;DHT22;70013;44.726;37.760;2023-07-31T02:21:50;23.99;58.44
75705;DHT22;70013;44.726;37.760;2023-07-31T02:22:51;24.00;58.28
75705;DHT22;70013;44.726;37.760;2023-07-31T02:23:54;24.01;57.64
75705;DHT22;70013;44.726;37.760;2023-07-31T02:24:56;24.02;58.62
75705;DHT22;70013;44.726;37.760;2023-07-31T02:25:57;24.04;58.33
75705;DHT22;70013;44.726;37.760;2023-07-31T02:26:58;24.02;59.44
75705;DHT22;70013;44.726;37.760;2023-07-31T02:28:00;24.00;59.48
75705;DHT22;70013;44.726;37.760;2023-07-31T02:29:01;24.01;59.36
75705;DHT22;70013;44.726;37.760;2023-07-31T02:30:03;24.01;58.87
75705;DHT22;70013;44.726;37.760;2023-07-31T02:31:04;24.03;59.35
75705;DHT22;70013;44.726;37.760;2023-07-31T02:32:06;24.03;59.05
75705;DHT22;70013;44.726;37.760;2023-07-31T02:33:07;24.05;58.57
75705;DHT22;70013;44.726;37.760;2023-07-31T02:34:08;24.08;58.66
75705;DHT22;70013;44.726;37.760;2023-07-31T02:35:10;24.06;58.62
75705;DHT22;70013;44.726;37.760;2023-07-31T02:36:16;24.06;59.00
75705;DHT22;70013;44.726;37.760;2023-07-31T02:37:17;24.08;58.25
75705;DHT22;70013;44.726;37.760;2023-07-31T02:38:18;24.09;58.54
75705;DHT22;70013;44.726;37.760;2023-07-31T02:39:20;24.10;58.35
75705;DHT22;70013;44.726;37.760;2023-07-31T02:40:22;24.11;58.47
75705;DHT22;70013;44.726;37.760;2023-07-31T02:41:24;24.13;56.42
75705;DHT22;70013;44.726;37.760;2023-07-31T02:42:25;24.15;56.45
75705;DHT22;70013;44.726;37.760;2023-07-31T02:43:26;24.14;56.73
75705;DHT22;70013;44.726;37.760;2023-07-31T02:44:28;24.16;56.36
75705;DHT22;70013;44.726;37.760;2023-07-31T02:45:29;24.19;57.31
75705;DHT22;70013;44.726;37.760;2023-07-31T02:46:30;24.21;57.17
75705;DHT22;70013;44.726;37.760;2023-07-31T02:47:32;24.24;56.98
75705;DHT22;70013;44.726;37.760;2023-07-31T02:48:33;24.28;56.42
75705;DHT22;70013;44.726;37.760;2023-07-31T02:49:35;24.30;56.58
75705;DHT22;70013;44.726;37.760;2023-07-31T02:50:36;24.33;56.49
75705;DHT22;70013;44.726;37.760;2023-07-31T02:51:38;24.38;56.61
75705;DHT22;70013;44.726;37.760;2023-07-31T02:52:39;24.39;56.69
75705;DHT22;70013;44.726;37.760;2023-07-31T02:53:40;24.42;56.48
75705;DHT22;70013;44.726;37.760;2023-07-31T02:54:41;24.42;56.18
75705;DHT22;70013;44.726;37.760;2023-07-31T02:55:43;24.45;56.07
75705;DHT22;70013;44.726;37.760;2023-07-31T02:56:44;24.50;56.40
75705;DHT22;70013;44.726;37.760;2023-07-31T02:57:45;24.55;56.16
75705;DHT22;70013;44.726;37.760;2023-07-31T02:58:46;24.58;56.08
75705;DHT22;70013;44.726;37.760;2023-07-31T02:59:48;24.62;56.43
75705;DHT22;70013;44.726;37.760;2023-07-31T03:00:49;24.64;56.52
75705;DHT22;70013;44.726;37.760;2023-07-31T03:01:50;24.70;56.07
75705;DHT22;70013;44.726;37.760;2023-07-31T03:02:52;24.77;56.13
75705;DHT22;70013;44.726;37.760;2023-07-31T03:03:53;24.86;55.73
75705;DHT22;70013;44.726;37.760;2023-07-31T03:04:54;24.93;54.81
75705;DHT22;70013;44.726;37.760;2023-07-31T03:05:56;24.90;54.92
75705;DHT22;70013;44.726;37.760;2023-07-31T03:06:59;24.94;55.20
75705;DHT22;70013;44.726;37.760;2023-07-31T03:08:01;25.00;55.07
75705;DHT22;70013;44.726;37.760;2023-07-31T03:09:03;25.06;55.07
75705;DHT22;70013;44.726;37.760;2023-07-31T03:10:05;25.14;54.89
75705;DHT22;70013;44.726;37.760;2023-07-31T03:11:06;25.21;54.55
75705;DHT22;70013;44.726;37.760;2023-07-31T03:12:08;25.37;54.05
75705;DHT22;70013;44.726;37.760;2023-07-31T03:13:09;25.56;53.42
75705;DHT22;70013;44.726;37.760;2023-07-31T03:14:11;25.73;52.62
75705;DHT22;70013;44.726;37.760;2023-07-31T03:15:12;25.94;52.07
75705;DHT22;70013;44.726;37.760;2023-07-31T03:16:13;26.17;51.38
75705;DHT22;70013;44.726;37.760;2023-07-31T03:17:15;26.42;50.22
75705;DHT22;70013;44.726;37.760;2023-07-31T03:18:16;26.70;49.15
75705;DHT22;70013;44.726;37.760;2023-07-31T03:19:17;26.82;48.40
75705;DHT22;70013;44.726;37.760;2023-07-31T03:20:18;26.99;48.62
75705;DHT22;70013;44.726;37.760;2023-07-31T03:21:20;27.36;47.34
75705;DHT22;70013;44.726;37.760;2023-07-31T03:22:21;27.86;45.74
75705;DHT22;70013;44.726;37.760;2023-07-31T03:23:22;28.38;44.68
75705;DHT22;70013;44.726;37.760;2023-07-31T03:24:24;28.91;42.83
75705;DHT22;70013;44.726;37.760;2023-07-31T03:25:25;29.51;41.57
75705;DHT22;70013;44.726;37.760;2023-07-31T03:26:26;30.01;40.38
75705;DHT22;70013;44.726;37.760;2023-07-31T03:27:27;30.50;39.24
75705;DHT22;70013;44.726;37.760;2023-07-31T03:28:29;30.96;38.02
75705;DHT22;70013;44.726;37.760;2023-07-31T03:29:30;31.25;36.22
75705;DHT22;70013;44.726;37.760;2023-07-31T03:30:31;31.63;36.05
75705;DHT22;70013;44.726;37.760;2023-07-31T03:31:33;32.04;34.72
75705;DHT22;70013;44.726;37.760;2023-07-31T03:32:35;32.39;34.27
75705;DHT22;70013;44.726;37.760;2023-07-31T03:33:36;32.81;33.47
75705;DHT22;70013;44.726;37.760;2023-07-31T03:34:38;33.28;32.38
75705;DHT22;70013;44.726;37.760;2023-07-31T03:35:40;33.59;32.17
75705;DHT22;70013;44.726;37.760;2023-07-31T03:36:42;33.96;31.49
75705;DHT22;70013;44.726;37.760;2023-07-31T03:37:43;34.27;30.58
75705;DHT22;70013;44.726;37.760;2023-07-31T03:38:46;34.50;29.18
75705;DHT22;70013;44.726;37.760;2023-07-31T03:39:47;34.84;29.30
75705;DHT22;70013;44.726;37.760;2023-07-31T03:40:49;35.12;28.63
75705;DHT22;70013;44.726;37.760;2023-07-31T03:41:50;35.45;28.08
75705;DHT22;70013;44.726;37.760;2023-07-31T03:42:52;35.79;27.18
75705;DHT22;70013;44.726;37.760;2023-07-31T03:43:53;35.99;26.84
75705;DHT22;70013;44.726;37.760;2023-07-31T03:44:57;36.19;25.79
75705;DHT22;70013;44.726;37.760;2023-07-31T03:45:58;36.30;25.56
75705;DHT22;70013;44.726;37.760;2023-07-31T03:46:59;36.54;24.94
75705;DHT22;70013;44.726;37.760;2023-07-31T03:48:00;36.71;24.67
75705;DHT22;70013;44.726;37.760;2023-07-31T03:49:02;36.95;24.06
75705;DHT22;70013;44.726;37.760;2023-07-31T03:50:03;37.22;23.74
75705;DHT22;70013;44.726;37.760;2023-07-31T03:51:05;37.52;23.31
75705;DHT22;70013;44.726;37.760;2023-07-31T03:52:06;37.84;22.66
75705;DHT22;70013;44.726;37.760;2023-07-31T03:53:08;38.16;22.31
75705;DHT22;70013;44.726;37.760;2023-07-31T03:54:10;38.34;21.95
75705;DHT22;70013;44.726;37.760;2023-07-31T03:55:11;38.46;21.85
75705;DHT22;70013;44.726;37.760;2023-07-31T03:56:13;38.79;21.52
75705;DHT22;70013;44.726;37.760;2023-07-31T03:57:15;39.04;21.47
75705;DHT22;70013;44.726;37.760;2023-07-31T03:58:16;39.17;21.26
75705;DHT22;70013;44.726;37.760;2023-07-31T03:59:17;39.30;21.02
75705;DHT22;70013;44.726;37.760;2023-07-31T04:00:19;39.47;20.63
75705;DHT22;70013;44.726;37.760;2023-07-31T04:01:21;39.82;20.38
75705;DHT22;70013;44.726;37.760;2023-07-31T04:02:22;40.07;19.73
75705;DHT22;70013;44.726;37.760;2023-07-31T04:03:23;40.24;19.74
75705;DHT22;70013;44.726;37.760;2023-07-31T04:04:25;40.60;19.05
75705;DHT22;70013;44.726;37.760;2023-07-31T04:05:26;40.90;18.88
75705;DHT22;70013;44.726;37.760;2023-07-31T04:06:28;41.17;18.38
75705;DHT22;70013;44.726;37.760;2023-07-31T04:07:29;41.25;18.47
75705;DHT22;70013;44.726;37.760;2023-07-31T04:08:30;41.06;17.67
75705;DHT22;70013;44.726;37.760;2023-07-31T04:09:32;41.36;17.57
75705;DHT22;70013;44.726;37.760;2023-07-31T04:10:33;41.32;17.72
75705;DHT22;70013;44.726;37.760;2023-07-31T04:11:34;41.05;17.53
75705;DHT22;70013;44.726;37.760;2023-07-31T04:12:36;40.98;17.60
75705;DHT22;70013;44.726;37.760;2023-07-31T04:13:39;41.37;17.09
75705;DHT22;70013;44.726;37.760;2023-07-31T04:14:40;41.76;16.64
75705;DHT22;70013;44.726;37.760;2023-07-31T04:15:41;42.03;16.45
75705;DHT22;70013;44.726;37.760;2023-07-31T04:16:43;42.36;16.03
75705;DHT22;70013;44.726;37.760;2023-07-31T04:17:44;42.43;15.90
75705;DHT22;70013;44.726;37.760;2023-07-31T04:18:45;42.55;15.74
75705;DHT22;70013;44.726;37.760;2023-07-31T04:19:47;42.70;16.10
75705;DHT22;70013;44.726;37.760;2023-07-31T04:20:48;43.02;15.57
75705;DHT22;70013;44.726;37.760;2023-07-31T04:21:50;43.19;15.23
75705;DHT22;70013;44.726;37.760;2023-07-31T04:22:53;43.17;14.99
75705;DHT22;70013;44.726;37.760;2023-07-31T04:23:54;42.72;15.13
75705;DHT22;70013;44.726;37.760;2023-07-31T04:24:57;42.92;15.10
75705;DHT22;70013;44.726;37.760;2023-07-31T04:25:58;43.10;14.74
75705;DHT22;70013;44.726;37.760;2023-07-31T04:26:59;43.46;14.51
75705;DHT22;70013;44.726;37.760;2023-07-31T04:28:01;43.86;14.07
75705;DHT22;70013;44.726;37.760;2023-07-31T04:29:02;44.21;13.75
75705;DHT22;70013;44.726;37.760;2023-07-31T04:30:04;44.56;13.48
75705;DHT22;70013;44.726;37.760;2023-07-31T04:31:06;44.83;13.17
75705;DHT22;70013;44.726;37.760;2023-07-31T04:32:07;45.07;13.05
75705;DHT22;70013;44.726;37.760;2023-07-31T04:33:09;45.29;12.73
75705;DHT22;70013;44.726;37.760;2023-07-31T04:34:10;45.51;12.57
75705;DHT22;70013;44.726;37.760;2023-07-31T04:35:13;45.62;12.52
75705;DHT22;70013;44.726;37.760;2023-07-31T04:36:14;45.71;12.44
75705;DHT22;70013;44.726;37.760;2023-07-31T04:37:16;45.89;12.34
75705;DHT22;70013;44.726;37.760;2023-07-31T04:38:17;45.77;12.68
75705;DHT22;70013;44.726;37.760;2023-07-31T04:39:19;45.89;12.37
75705;DHT22;70013;44.726;37.760;2023-07-31T04:40:21;45.72;12.26
75705;DHT22;70013;44.726;37.760;2023-07-31T04:41:23;45.96;11.97
75705;DHT22;70013;44.726;37.760;2023-07-31T04:42:24;45.15;12.09
75705;DHT22;70013;44.726;37.760;2023-07-31T04:43:26;45.53;12.26
75705;DHT22;70013;44.726;37.760;2023-07-31T04:44:27;45.90;11.94
75705;DHT22;70013;44.726;37.760;2023-07-31T04:45:28;46.07;11.68
75705;DHT22;70013;44.726;37.760;2023-07-31T04:46:30;46.12;12.02
75705;DHT22;70013;44.726;37.760;2023-07-31T04:47:31;46.39;12.07
75705;DHT22;70013;44.726;37.760;2023-07-31T04:48:33;46.80;11.46
75705;DHT22;70013;44.726;37.760;2023-07-31T04:49:34;46.99;11.82
75705;DHT22;70013;44.726;37.760;2023-07-31T04:50:36;47.33;10.88
75705;DHT22;70013;44.726;37.760;2023-07-31T04:51:37;47.67;10.75
75705;DHT22;70013;44.726;37.760;2023-07-31T04:52:39;48.06;10.45
75705;DHT22;70013;44.726;37.760;2023-07-31T04:53:40;48.28;10.46
75705;DHT22;70013;44.726;37.760;2023-07-31T04:54:42;48.56;10.62
75705;DHT22;70013;44.726;37.760;2023-07-31T04:55:43;48.70;9.14
75705;DHT22;70013;44.726;37.760;2023-07-31T04:56:44;48.37;9.53
75705;DHT22;70013;44.726;37.760;2023-07-31T04:57:46;48.37;10.24
75705;DHT22;70013;44.726;37.760;2023-07-31T04:58:47;48.58;9.82
75705;DHT22;70013;44.726;37.760;2023-07-31T04:59:49;48.74;9.49
75705;DHT22;70013;44.726;37.760;2023-07-31T05:00:51;48.93;9.70
75705;DHT22;70013;44.726;37.760;2023-07-31T05:01:53;49.19;9.17
75705;DHT22;70013;44.726;37.760;2023-07-31T05:02:54;49.40;8.88
75705;DHT22;70013;44.726;37.760;2023-07-31T05:03:55;49.58;8.76
75705;DHT22;70013;44.726;37.760;2023-07-31T05:04:57;49.72;8.47
75705;DHT22;70013;44.726;37.760;2023-07-31T05:05:58;49.78;8.32
75705;DHT22;70013;44.726;37.760;2023-07-31T05:06:59;49.94;8.31
75705;DHT22;70013;44.726;37.760;2023-07-31T05:08:01;49.98;8.39
75705;DHT22;70013;44.726;37.760;2023-07-31T05:09:02;50.09;8.08
75705;DHT22;70013;44.726;37.760;2023-07-31T05:10:04;50.27;8.04
75705;DHT22;70013;44.726;37.760;2023-07-31T05:11:05;50.44;7.99
75705;DHT22;70013;44.726;37.760;2023-07-31T05:12:07;50.48;8.08
75705;DHT22;70013;44.726;37.760;2023-07-31T05:13:09;50.61;7.89
75705;DHT22;70013;44.726;37.760;2023-07-31T05:14:11;50.81;7.80
75705;DHT22;70013;44.726;37.760;2023-07-31T05:15:12;50.97;7.32
75705;DHT22;70013;44.726;37.760;2023-07-31T05:16:13;50.90;7.43
75705;DHT22;70013;44.726;37.760;2023-07-31T05:17:15;51.10;7.42
75705;DHT22;70013;44.726;37.760;2023-07-31T05:18:16;51.33;7.34
75705;DHT22;70013;44.726;37.760;2023-07-31T05:19:18;51.39;7.08
75705;DHT22;70013;44.726;37.760;2023-07-31T05:20:20;51.45;7.04
75705;DHT22;70013;44.726;37.760;2023-07-31T05:21:22;51.61;6.95
75705;DHT22;70013;44.726;37.760;2023-07-31T05:22:23;51.60;6.49
75705;DHT22;70013;44.726;37.760;2023-07-31T05:23:24;51.47;6.62
75705;DHT22;70013;44.726;37.760;2023-07-31T05:24:26;51.48;7.22
75705;DHT22;70013;44.726;37.760;2023-07-31T05:25:27;51.36;7.49
75705;DHT22;70013;44.726;37.760;2023-07-31T05:26:28;51.35;7.68
75705;DHT22;70013;44.726;37.760;2023-07-31T05:27:30;51.33;7.85
75705;DHT22;70013;44.726;37.760;2023-07-31T05:28:34;51.32;8.01
75705;DHT22;70013;44.726;37.760;2023-07-31T05:29:36;51.57;8.89
75705;DHT22;70013;44.726;37.760;2023-07-31T05:30:37;51.76;7.21
75705;DHT22;70013;44.726;37.760;2023-07-31T05:31:39;51.70;8.35
75705;DHT22;70013;44.726;37.760;2023-07-31T05:32:40;51.68;7.85
75705;DHT22;70013;44.726;37.760;2023-07-31T05:33:41;51.79;8.64
75705;DHT22;70013;44.726;37.760;2023-07-31T05:34:43;52.00;8.08
75705;DHT22;70013;44.726;37.760;2023-07-31T05:35:44;52.14;7.44
75705;DHT22;70013;44.726;37.760;2023-07-31T05:36:46;52.26;7.91
75705;DHT22;70013;44.726;37.760;2023-07-31T05:37:47;52.32;7.47
75705;DHT22;70013;44.726;37.760;2023-07-31T05:38:49;52.41;7.14
75705;DHT22;70013;44.726;37.760;2023-07-31T05:39:50;52.57;7.34
75705;DHT22;70013;44.726;37.760;2023-07-31T05:40:53;52.58;7.49
75705;DHT22;70013;44.726;37.760;2023-07-31T05:41:54;52.80;6.73
75705;DHT22;70013;44.726;37.760;2023-07-31T05:42:55;53.16;7.99
75705;DHT22;70013;44.726;37.760;2023-07-31T05:43:57;53.13;7.08
75705;DHT22;70013;44.726;37.760;2023-07-31T05:44:58;53.28;7.30
75705;DHT22;70013;44.726;37.760;2023-07-31T05:45:59;53.53;7.69
75705;DHT22;70013;44.726;37.760;2023-07-31T05:47:02;53.49;5.92
75705;DHT22;70013;44.726;37.760;2023-07-31T05:48:03;53.55;6.26
75705;DHT22;70013;44.726;37.760;2023-07-31T05:49:05;53.65;6.54
75705;DHT22;70013;44.726;37.760;2023-07-31T05:50:06;53.78;7.02
75705;DHT22;70013;44.726;37.760;2023-07-31T05:51:08;53.87;6.81
75705;DHT22;70013;44.726;37.760;2023-07-31T05:52:09;53.62;7.02
75705;DHT22;70013;44.726;37.760;2023-07-31T05:53:11;53.84;7.68
75705;DHT22;70013;44.726;37.760;2023-07-31T05:54:12;53.92;6.94
75705;DHT22;70013;44.726;37.760;2023-07-31T05:55:13;54.14;6.70
75705;DHT22;70013;44.726;37.760;2023-07-31T05:56:15;54.35;6.79
75705;DHT22;70013;44.726;37.760;2023-07-31T05:57:17;54.42;6.92
75705;DHT22;70013;44.726;37.760;2023-07-31T05:58:18;54.44;5.84
75705;DHT22;70013;44.726;37.760;2023-07-31T05:59:20;54.75;7.11
75705;DHT22;70013;44.726;37.760;2023-07-31T06:00:21;54.85;6.36
75705;DHT22;70013;44.726;37.760;2023-07-31T06:01:23;54.98;6.00
75705;DHT22;70013;44.726;37.760;2023-07-31T06:02:25;55.20;6.28
75705;DHT22;70013;44.726;37.760;2023-07-31T06:03:26;55.35;6.01
75705;DHT22;70013;44.726;37.760;2023-07-31T06:04:28;55.31;5.47
75705;DHT22;70013;44.726;37.760;2023-07-31T06:05:30;55.48;4.35
75705;DHT22;70013;44.726;37.760;2023-07-31T06:06:32;54.95;3.64
75705;DHT22;70013;44.726;37.760;2023-07-31T06:07:33;54.75;4.50
75705;DHT22;70013;44.726;37.760;2023-07-31T06:08:35;54.11;4.70
75705;DHT22;70013;44.726;37.760;2023-07-31T06:09:36;54.05;4.54
75705;DHT22;70013;44.726;37.760;2023-07-31T06:10:38;53.67;4.44
75705;DHT22;70013;44.726;37.760;2023-07-31T06:11:39;53.65;4.60
75705;DHT22;70013;44.726;37.760;2023-07-31T06:12:41;53.65;4.94
75705;DHT22;70013;44.726;37.760;2023-07-31T06:13:42;53.88;4.60
75705;DHT22;70013;44.726;37.760;2023-07-31T06:14:45;53.56;4.09
75705;DHT22;70013;44.726;37.760;2023-07-31T06:15:47;52.49;5.85
75705;DHT22;70013;44.726;37.760;2023-07-31T06:16:48;53.11;6.34
75705;DHT22;70013;44.726;37.760;2023-07-31T06:17:50;53.63;5.95
75705;DHT22;70013;44.726;37.760;2023-07-31T06:18:51;54.18;5.23
75705;DHT22;70013;44.726;37.760;2023-07-31T06:19:53;54.26;4.67
75705;DHT22;70013;44.726;37.760;2023-07-31T06:20:54;53.23;5.31
75705;DHT22;70013;44.726;37.760;2023-07-31T06:21:56;53.41;4.04
75705;DHT22;70013;44.726;37.760;2023-07-31T06:22:58;52.51;4.93
75705;DHT22;70013;44.726;37.760;2023-07-31T06:23:59;52.02;6.59
75705;DHT22;70013;44.726;37.760;2023-07-31T06:25:01;52.57;5.99
75705;DHT22;70013;44.726;37.760;2023-07-31T06:26:03;53.19;5.69
75705;DHT22;70013;44.726;37.760;2023-07-31T06:27:04;53.17;4.81
75705;DHT22;70013;44.726;37.760;2023-07-31T06:28:07;53.29;5.52
75705;DHT22;70013;44.726;37.760;2023-07-31T06:29:08;53.56;4.85
75705;DHT22;70013;44.726;37.760;2023-07-31T06:30:10;53.34;5.28
75705;DHT22;70013;44.726;37.760;2023-07-31T06:31:12;53.72;5.31